Weather History for Shawano, WI

Change the Weather History Date:

Saturday, October 6, 2012

  Actual Average (KGRB) Record (KGRB)
Temperature  
Mean Temperature 42 °F 51 °F  
Max Temperature 46 °F 61 °F 88 °F (1963)
Min Temperature 37 °F 41 °F 23 °F (2001)
Degree Days  
Heating Degree Days 24 14  
Month to date heating degree days 81  
Since 1 July heating degree days 351  
Cooling Degree Days 0 0  
Month to date cooling degree days 0  
Year to date cooling degree days 395  
Moisture  
Dew Point 28 °F    
Average Humidity 59    
Maximum Humidity 81    
Minimum Humidity 46    
Precipitation  
Precipitation 0.00 in 0.08 in 1.64 in (1911)
Month to date precipitation 0.51  
Year to date precipitation 23.95  
Snow  
Snow 0.00 in 0.00 in T in (2000)
Month to date snowfall 0.0  
Since 1 July snowfall 0.0  
Since 1 September snowfall 0.0  
Snow Depth -    
Sea Level Pressure  
Sea Level Pressure 30.08 in    
Wind  
Wind Speed 8 mph (NW)    
Max Wind Speed 14 mph    
Max Gust Speed 22 mph    
Visibility 10 miles    
Events      
T = Trace of Precipitation, MM = Missing Value Source: NWS Daily Summary

Daily Weather History Graph

Daily Weather History Graph

Search for Another Location

Airport:

Trip Planner

Search our weather history database for the weather conditions in past years. The results will help you decide how hot, cold, wet, or windy it might be!

Date:

Astronomy

Oct. 06, 2012 Rise Set
Actual Time 6:58 AM CDT 6:24 PM CDT
Civil Twilight 6:29 AM CDT 6:53 PM CDT
Nautical Twilight 5:55 AM CDT 7:27 PM CDT
Astronomical Twilight 5:21 AM CDT 8:01 PM CDT
Moon 10:28 PM CDT (10/6) 1:04 PM CDT (10/6)
Length of Visible Light 12h 24m
Length of Day
11h 25m
Waning Gibbous, 65% of the Moon is Illuminated
Oct 6
Waning Gibbous
Oct 8
Last Quarter
Oct 15
New
Oct 21
First Quarter
Oct 29
Full

Hourly Weather History & Observations

Time (CDT) Temp. Windchill Dew Point Humidity Pressure Visibility Wind Dir Wind Speed Gust Speed Precip Events Conditions
12:15 AM 37.4 °F 31.4 °F 26.6 °F 65% 29.96 in 10.0 mi West 8.1 mph - N/A   Clear
12:35 AM 37.4 °F 31.4 °F 26.6 °F 65% 29.96 in 10.0 mi West 8.1 mph - N/A   Scattered Clouds
12:55 AM 39.2 °F 34.2 °F 28.4 °F 65% 29.96 in 10.0 mi West 6.9 mph - N/A   Overcast
1:15 AM 39.2 °F 33.6 °F 28.4 °F 65% 29.96 in 10.0 mi West 8.1 mph - N/A   Overcast
1:35 AM 41.0 °F 35.2 °F 28.4 °F 61% 29.96 in 10.0 mi WNW 9.2 mph 17.3 mph N/A   Overcast
1:55 AM 41.0 °F 36.4 °F 28.4 °F 61% 29.96 in 10.0 mi WNW 6.9 mph - N/A   Overcast
2:15 AM 41.0 °F 34.7 °F 28.4 °F 61% 29.96 in 10.0 mi West 10.4 mph 18.4 mph N/A   Overcast
2:35 AM 39.2 °F 33.6 °F 30.2 °F 70% 29.96 in 10.0 mi WNW 8.1 mph - N/A   Mostly Cloudy
2:55 AM 39.2 °F 34.2 °F 30.2 °F 70% 29.96 in 10.0 mi West 6.9 mph - N/A   Scattered Clouds
3:15 AM 39.2 °F 34.2 °F 30.2 °F 70% 29.97 in 10.0 mi West 6.9 mph - N/A   Mostly Cloudy
3:35 AM 37.4 °F 32.1 °F 30.2 °F 75% 29.97 in 10.0 mi West 6.9 mph - N/A   Scattered Clouds
3:55 AM 37.4 °F 32.8 °F 30.2 °F 75% 29.97 in 10.0 mi West 5.8 mph - N/A   Scattered Clouds
4:35 AM 37.4 °F 31.4 °F 30.2 °F 75% 29.98 in 10.0 mi West 8.1 mph - N/A   Overcast
4:55 AM 37.4 °F 31.4 °F 30.2 °F 75% 29.99 in 10.0 mi WNW 8.1 mph - N/A   Overcast
5:15 AM 37.4 °F 31.4 °F 30.2 °F 75% 29.99 in 10.0 mi WNW 8.1 mph - N/A   Mostly Cloudy
5:35 AM 39.2 °F 33.0 °F 32.0 °F 75% 30.00 in 10.0 mi West 9.2 mph - N/A   Overcast
5:55 AM 37.4 °F 32.8 °F 30.2 °F 75% 30.00 in 10.0 mi WNW 5.8 mph - N/A   Overcast
6:15 AM 37.4 °F 31.4 °F 32.0 °F 81% 30.01 in 10.0 mi WNW 8.1 mph - N/A   Overcast
6:35 AM 37.4 °F 32.1 °F 30.2 °F 75% 30.02 in 10.0 mi WNW 6.9 mph - N/A   Overcast
6:55 AM 37.4 °F 32.1 °F 30.2 °F 75% 30.03 in 10.0 mi WNW 6.9 mph - N/A   Scattered Clouds
7:15 AM 37.4 °F 32.1 °F 30.2 °F 75% 30.04 in 10.0 mi WNW 6.9 mph - N/A   Mostly Cloudy
7:35 AM 37.4 °F 32.8 °F 30.2 °F 75% 30.04 in 10.0 mi WNW 5.8 mph - N/A   Mostly Cloudy
7:55 AM 37.4 °F 32.1 °F 32.0 °F 81% 30.05 in 10.0 mi West 6.9 mph - N/A   Scattered Clouds
8:15 AM 37.4 °F 31.4 °F 32.0 °F 81% 30.06 in 10.0 mi WNW 8.1 mph - N/A   Clear
8:35 AM 39.2 °F 34.2 °F 32.0 °F 75% 30.06 in 10.0 mi NW 6.9 mph - N/A   Clear
8:55 AM 41.0 °F 34.7 °F 32.0 °F 70% 30.07 in 10.0 mi WNW 10.4 mph 18.4 mph N/A   Clear
9:15 AM 41.0 °F 34.3 °F 30.2 °F 65% 30.08 in 10.0 mi WNW 11.5 mph - N/A   Clear
9:35 AM 42.8 °F 35.8 °F 30.2 °F 61% 30.08 in 10.0 mi NW 13.8 mph 20.7 mph N/A   Scattered Clouds
9:55 AM 42.8 °F 37.5 °F 30.2 °F 61% 30.08 in 10.0 mi WNW 9.2 mph - N/A   Mostly Cloudy
10:15 AM 44.6 °F 39.7 °F 30.2 °F 57% 30.09 in 10.0 mi NNW 9.2 mph 16.1 mph N/A   Mostly Cloudy
10:35 AM 44.6 °F 38.8 °F 28.4 °F 53% 30.09 in 10.0 mi NW 11.5 mph 19.6 mph N/A   Scattered Clouds
10:55 AM 44.6 °F 38.1 °F 28.4 °F 53% 30.09 in 10.0 mi NW 13.8 mph 21.9 mph N/A   Mostly Cloudy
11:15 AM 46.4 °F 41.5 °F 28.4 °F 50% 30.09 in 10.0 mi North 10.4 mph 21.9 mph N/A   Scattered Clouds
11:35 AM 44.6 °F 38.8 °F 28.4 °F 53% 30.10 in 10.0 mi NW 11.5 mph 18.4 mph N/A   Mostly Cloudy
11:55 AM 44.6 °F 38.4 °F 26.6 °F 49% 30.10 in 10.0 mi NW 12.7 mph - N/A   Scattered Clouds
12:15 PM 46.4 °F 42.4 °F 28.4 °F 50% 30.11 in 10.0 mi NNW 8.1 mph 17.3 mph N/A   Mostly Cloudy
12:35 PM 46.4 °F 42.4 °F 28.4 °F 50% 30.11 in 10.0 mi North 8.1 mph - N/A   Mostly Cloudy
12:55 PM 44.6 °F 40.2 °F 28.4 °F 53% 30.11 in 10.0 mi WNW 8.1 mph - N/A   Overcast
1:15 PM 46.4 °F 41.5 °F 28.4 °F 50% 30.11 in 10.0 mi West 10.4 mph - N/A   Mostly Cloudy
1:35 PM 44.6 °F 38.8 °F 30.2 °F 57% 30.11 in 10.0 mi NW 11.5 mph 17.3 mph N/A   Mostly Cloudy
1:55 PM 44.6 °F 39.7 °F 28.4 °F 53% 30.11 in 10.0 mi NW 9.2 mph 16.1 mph N/A   Mostly Cloudy
2:15 PM 46.4 °F 40.4 °F 26.6 °F 46% 30.11 in 10.0 mi NW 13.8 mph 18.4 mph N/A   Mostly Cloudy
2:35 PM 44.6 °F 39.7 °F 26.6 °F 49% 30.11 in 10.0 mi WNW 9.2 mph - N/A   Overcast
2:55 PM 46.4 °F 41.1 °F 26.6 °F 46% 30.10 in 10.0 mi NNW 11.5 mph - N/A   Overcast
3:15 PM 44.6 °F 38.4 °F 26.6 °F 49% 30.11 in 10.0 mi NW 12.7 mph 18.4 mph N/A   Overcast
3:35 PM 44.6 °F 38.4 °F 26.6 °F 49% 30.11 in 10.0 mi NW 12.7 mph 18.4 mph N/A   Overcast
3:55 PM 44.6 °F 39.7 °F 26.6 °F 49% 30.11 in 10.0 mi NNW 9.2 mph - N/A   Overcast
4:15 PM 44.6 °F 38.8 °F 26.6 °F 49% 30.11 in 10.0 mi NNW 11.5 mph - N/A   Overcast
4:35 PM 44.6 °F 41.4 °F 26.6 °F 49% 30.12 in 10.0 mi NW 5.8 mph - N/A   Overcast
4:55 PM 44.6 °F 42.2 °F 26.6 °F 49% 30.12 in 10.0 mi NW 4.6 mph - N/A   Overcast
5:15 PM 44.6 °F 40.7 °F 26.6 °F 49% 30.12 in 10.0 mi NW 6.9 mph - N/A   Overcast
5:35 PM 44.6 °F 40.2 °F 24.8 °F 46% 30.12 in 10.0 mi NNW 8.1 mph - N/A   Overcast
6:15 PM 42.8 °F 37.0 °F 23.0 °F 46% 30.14 in 10.0 mi NNW 10.4 mph 16.1 mph N/A   Overcast
6:35 PM 42.8 °F 38.6 °F 23.0 °F 46% 30.14 in 10.0 mi North 6.9 mph - N/A   Overcast
6:55 PM 42.8 °F 37.5 °F 23.0 °F 46% 30.14 in 10.0 mi North 9.2 mph - N/A   Overcast
7:15 PM 42.8 °F 38.0 °F 24.8 °F 49% 30.15 in 10.0 mi NNW 8.1 mph - N/A   Overcast
7:35 PM 42.8 °F 38.0 °F 26.6 °F 53% 30.15 in 10.0 mi NNW 8.1 mph - N/A   Overcast
7:55 PM 42.8 °F 38.6 °F 26.6 °F 53% 30.16 in 10.0 mi NNW 6.9 mph - N/A   Overcast
8:15 PM 41.0 °F 35.2 °F 24.8 °F 53% 30.17 in 10.0 mi NNW 9.2 mph - N/A   Overcast
8:35 PM 41.0 °F 37.1 °F 23.0 °F 49% 30.17 in 10.0 mi NNW 5.8 mph - N/A   Overcast
8:55 PM 41.0 °F 38.0 °F 23.0 °F 49% 30.17 in 10.0 mi NW 4.6 mph - N/A   Overcast
9:15 PM 41.0 °F 36.4 °F 23.0 °F 49% 30.17 in 10.0 mi NW 6.9 mph - N/A   Overcast
9:35 PM 41.0 °F 38.0 °F 24.8 °F 53% 30.17 in 10.0 mi NW 4.6 mph - N/A   Overcast
9:55 PM 41.0 °F 39.0 °F 24.8 °F 53% 30.17 in 10.0 mi WNW 3.5 mph - N/A   Overcast
10:15 PM 41.0 °F 39.0 °F 23.0 °F 49% 30.17 in 10.0 mi WNW 3.5 mph - N/A   Overcast
10:35 PM 41.0 °F 39.0 °F 23.0 °F 49% 30.17 in 10.0 mi WNW 3.5 mph - N/A   Overcast
10:55 PM 41.0 °F 36.4 °F 23.0 °F 49% 30.17 in 10.0 mi NW 6.9 mph - N/A   Overcast
11:15 PM 41.0 °F 34.7 °F 24.8 °F 53% 30.17 in 10.0 mi NW 10.4 mph - N/A   Overcast
11:35 PM 39.2 °F 35.0 °F 26.6 °F 61% 30.17 in 10.0 mi NW 5.8 mph - N/A   Overcast
11:55 PM 39.2 °F 35.9 °F 26.6 °F 61% 30.16 in 10.0 mi NW 4.6 mph - N/A   Overcast